Aérodrome :
LOGIN :

S'inscrire | Disclaimer

   EN    FR    IT 

 










Légende :    VFR   VFR Marginal   IFR   IFR Intensif   IFR Très Intensif
Visi : 
Plafond : 
>= 8 km
>= 3000ft
5 à 8 km
1000 à 3000 ft
1500m à 5 km
500 à 1000 ft
800 à 1500m
200 à 500 ft
< 800m
< 200 ft
Symboles :   Orages  Brouillard  Fortes neiges  Fortes précipitations  Vent > 20 kt
SIGMETs :   Divers  Orages  Givrage  Turbulence  Onde Orograph.  Cendres Volcan.






- Altitude de l'aérodrome : 607 ft
- Code IATA : BCM


LRBC - Bacău

DERNIER METAR :
  • 300930Z 35013KT 330V030 CAVOK 12/03 Q1011

METARs EXPIRÉS :
  • 300900Z 35014KT CAVOK 12/03 Q1011
  • 300830Z 35016KT CAVOK 12/03 Q1011
  • 300800Z 36015KT CAVOK 12/03 Q1011
  • 300730Z 35019KT CAVOK 11/03 Q1011
  • 300700Z 35012KT CAVOK 11/03 Q1011

TAF TAF LRBC
Valide du 30 à 09h jusqu'au 30 à 18h UTC


300800Z 3009/3018 36016KT CAVOK
TEMPO 3014/3018 36018G30KT
PROB30
TEMPO 3016/3018 5000 -RA



MET'MAP, la Météo Aéronautique d'un coup d'oeil ! - Copyright ORBIFLY Décembre 2007 - Disclaimer

ORBIFLY MET'MAP TEAM :

Programmation & Développement : Alexandra Zaïnal
Sur une idée originale de : Baudouin d'Aumeries
Assistance à la programmation : Marc-Olivier Méhu
Soutien technique & logistique : Manuel Goepfert

Contact : metmap@orbifly.com




SOURCES & CREDITS :

   NOAA